createdAt,value
2018-12-17T00:09:23.878Z,3.6
2018-12-17T00:14:26.224Z,3.6
2018-12-17T00:19:28.408Z,3.6
2018-12-17T00:24:30.924Z,3.6
2018-12-17T00:29:33.026Z,3.7
2018-12-17T00:34:35.283Z,3.7
2018-12-17T00:39:37.668Z,3.7
2018-12-17T00:44:39.854Z,3.6
2018-12-17T00:49:42.207Z,3.6
2018-12-17T00:54:44.634Z,3.5
2018-12-17T00:59:46.789Z,3.5
2018-12-17T01:04:49.006Z,3.6
2018-12-17T01:09:51.324Z,3.5
2018-12-17T01:14:53.912Z,3.6
2018-12-17T01:19:55.910Z,3.6
2018-12-17T01:24:58.259Z,3.7
2018-12-17T01:30:00.672Z,3.7
2018-12-17T01:35:02.805Z,3.8
2018-12-17T01:40:05.143Z,3.8
2018-12-17T01:45:07.435Z,3.8
2018-12-17T01:50:09.792Z,3.9
2018-12-17T01:55:11.979Z,3.9
2018-12-17T02:00:14.354Z,4
2018-12-17T02:05:16.653Z,4.1
2018-12-17T02:10:18.853Z,4.1
2018-12-17T02:15:21.201Z,4.2
2018-12-17T02:20:23.533Z,4.3
2018-12-17T02:25:25.799Z,4.4
2018-12-17T02:30:28.234Z,4.5
2018-12-17T02:35:30.290Z,4.6
2018-12-17T02:40:32.699Z,4.7
2018-12-17T02:45:34.904Z,4.8
2018-12-17T02:50:37.214Z,4.9
2018-12-17T02:55:39.629Z,4.9
2018-12-17T03:00:42.013Z,5
2018-12-17T03:05:44.031Z,5
2018-12-17T03:10:46.469Z,5.1
2018-12-17T03:15:48.760Z,5.2
2018-12-17T03:20:51.013Z,5.2
2018-12-17T03:25:53.308Z,5.2
2018-12-17T03:30:55.549Z,5.3
2018-12-17T03:35:58.035Z,5.4
2018-12-17T03:41:00.168Z,5.5
2018-12-17T03:46:02.492Z,5.5
2018-12-17T03:51:04.856Z,5.6
2018-12-17T03:56:07.107Z,5.6
2018-12-17T04:01:09.300Z,5.6
2018-12-17T04:06:11.697Z,5.7
2018-12-17T04:11:13.965Z,5.7
2018-12-17T04:16:16.225Z,5.8
2018-12-17T04:21:18.569Z,5.8
2018-12-17T04:26:20.878Z,5.9
2018-12-17T04:31:23.103Z,5.9
2018-12-17T04:36:25.409Z,5.9
2018-12-17T04:41:27.809Z,5.9
2018-12-17T04:46:30.046Z,6
2018-12-17T04:51:32.250Z,6
2018-12-17T04:56:34.628Z,6
2018-12-17T05:01:36.812Z,6.1
2018-12-17T05:06:39.154Z,6.1
2018-12-17T05:11:41.492Z,6.1
2018-12-17T05:16:43.847Z,6.1
2018-12-17T05:21:47.123Z,6.1
2018-12-17T05:26:48.360Z,6.1
2018-12-17T05:31:50.685Z,6.1
2018-12-17T05:36:52.970Z,6.1
2018-12-17T05:41:55.189Z,6.1
2018-12-17T05:46:57.484Z,6.2
2018-12-17T05:51:59.893Z,6.3
2018-12-17T05:57:02.191Z,6.3
2018-12-17T06:02:04.375Z,6.3
2018-12-17T06:07:06.702Z,6.3
2018-12-17T06:12:08.973Z,6.3
2018-12-17T06:17:11.242Z,6.4
2018-12-17T06:22:13.555Z,6.4
2018-12-17T06:27:15.786Z,6.4
2018-12-17T06:32:18.259Z,6.4
2018-12-17T06:37:20.567Z,6.4
2018-12-17T06:42:22.913Z,6.4
2018-12-17T06:47:25.103Z,6.4
2018-12-17T06:52:27.311Z,6.4
2018-12-17T06:57:29.663Z,6.5
2018-12-17T07:02:32.042Z,6.4
2018-12-17T07:07:34.205Z,6.4
2018-12-17T07:12:36.439Z,6.4
2018-12-17T07:17:38.960Z,6.5
2018-12-17T07:22:41.062Z,6.5
2018-12-17T07:27:43.361Z,6.5
2018-12-17T07:32:45.744Z,6.5
2018-12-17T07:37:48.017Z,6.5
2018-12-17T07:42:50.268Z,6.5
2018-12-17T07:47:52.656Z,6.4
2018-12-17T07:52:54.833Z,6.5
2018-12-17T07:57:57.129Z,6.4
2018-12-17T08:02:59.395Z,6.4
2018-12-17T08:08:01.871Z,6.4
2018-12-17T08:13:04.008Z,6.4
2018-12-17T08:18:06.344Z,6.3
2018-12-17T08:23:08.719Z,6.4
2018-12-17T08:28:10.915Z,6.3
2018-12-17T08:33:13.229Z,6.3
2018-12-17T08:38:15.569Z,6.4
2018-12-17T08:43:17.829Z,6.4
2018-12-17T08:48:20.199Z,6.4
2018-12-17T08:53:22.479Z,6.5
2018-12-17T08:58:24.647Z,6.5
2018-12-17T09:03:26.993Z,6.5
2018-12-17T09:08:29.264Z,6.6
2018-12-17T09:13:31.610Z,6.6
2018-12-17T09:18:33.941Z,6.7
2018-12-17T09:23:36.086Z,6.7
2018-12-17T09:28:38.513Z,6.7
2018-12-17T09:33:40.755Z,6.7
2018-12-17T09:38:43.016Z,6.8
2018-12-17T09:43:45.363Z,6.8
2018-12-17T09:48:47.649Z,6.8
2018-12-17T09:53:49.847Z,6.8
2018-12-17T09:58:52.308Z,6.8
2018-12-17T10:03:54.521Z,6.9
2018-12-17T10:08:56.759Z,6.9
2018-12-17T10:13:59.150Z,6.9
2018-12-17T10:19:01.391Z,7
2018-12-17T10:24:03.630Z,7.1
2018-12-17T10:29:05.984Z,7.2
2018-12-17T10:34:08.295Z,7.3
2018-12-17T10:39:10.659Z,7.4
2018-12-17T10:44:12.868Z,7.4
2018-12-17T10:49:15.354Z,7.3
2018-12-17T10:54:17.525Z,7.3
2018-12-17T10:59:19.692Z,7.4
2018-12-17T11:04:22.119Z,7.5
2018-12-17T11:09:24.235Z,7.7
2018-12-17T11:14:26.626Z,7.7
2018-12-17T11:19:28.987Z,7.7
2018-12-17T11:24:31.316Z,7.8
2018-12-17T11:29:33.519Z,7.8
2018-12-17T11:34:35.757Z,7.8
2018-12-17T11:39:38.155Z,8.2
2018-12-17T11:44:40.361Z,8.3
2018-12-17T11:49:42.666Z,8.1
2018-12-17T11:54:44.991Z,8
2018-12-17T11:59:47.191Z,8
2018-12-17T12:04:49.610Z,8.1
2018-12-17T12:09:51.853Z,8.1
2018-12-17T12:14:54.265Z,8.1
2018-12-17T12:19:56.637Z,8.1
2018-12-17T12:24:58.712Z,8.1
2018-12-17T12:30:01.056Z,8.1
2018-12-17T12:35:03.292Z,8.2
2018-12-17T12:40:05.676Z,8.2
2018-12-17T12:45:07.937Z,8.3
2018-12-17T12:50:10.130Z,8.5
2018-12-17T12:55:12.514Z,8.6
2018-12-17T13:00:14.890Z,8.6
2018-12-17T13:05:17.145Z,8.6
2018-12-17T13:10:19.438Z,8.5
2018-12-17T13:15:21.690Z,8.4
2018-12-17T13:20:24.077Z,8.3
2018-12-17T13:25:26.274Z,8.2
2018-12-17T13:30:28.596Z,8.2
2018-12-17T13:35:30.973Z,8.2
2018-12-17T13:40:33.256Z,8.2
2018-12-17T13:45:35.417Z,8.3
2018-12-17T13:50:37.809Z,8.3
2018-12-17T13:55:40.104Z,8.3
2018-12-17T14:00:43.749Z,8.4
2018-12-17T14:05:44.560Z,8.4
2018-12-17T14:10:47.029Z,8.4
2018-12-17T14:15:49.284Z,8.4
2018-12-17T14:20:51.612Z,8.3
2018-12-17T14:25:53.733Z,8.4
2018-12-17T14:30:56.033Z,8.5
2018-12-17T14:35:58.379Z,8.4
2018-12-17T14:41:00.674Z,8.4
2018-12-17T14:46:02.990Z,8.3
2018-12-17T14:51:05.292Z,8.3
2018-12-17T14:56:07.589Z,8.2
2018-12-17T15:01:09.870Z,8.1
2018-12-17T15:06:12.079Z,8.1
2018-12-17T15:11:14.370Z,7.9
2018-12-17T15:16:16.842Z,7.9
2018-12-17T15:21:19.037Z,7.9
2018-12-17T15:26:21.494Z,7.8
2018-12-17T15:31:23.732Z,7.7
2018-12-17T15:36:25.950Z,7.6
2018-12-17T15:41:28.245Z,7.5
2018-12-17T15:46:30.515Z,7.4
2018-12-17T15:51:32.887Z,7.3
2018-12-17T15:56:35.062Z,7.2
2018-12-17T16:01:37.536Z,7.2
2018-12-17T16:06:39.734Z,7.1
2018-12-17T16:11:42.008Z,7
2018-12-17T16:16:44.407Z,7
2018-12-17T16:21:46.632Z,7
2018-12-17T16:26:49.274Z,7
2018-12-17T16:31:57.203Z,6.9
2018-12-17T16:36:53.473Z,6.9
2018-12-17T16:41:56.786Z,6.8
2018-12-17T16:52:00.334Z,6.7
2018-12-17T16:57:02.672Z,6.6
2018-12-17T17:02:04.911Z,6.6
2018-12-17T17:07:07.179Z,6.6
2018-12-17T17:12:09.453Z,6.6
2018-12-17T17:17:11.909Z,6.6
2018-12-17T17:22:14.030Z,6.6
2018-12-17T17:27:16.313Z,6.6
2018-12-17T17:32:18.741Z,6.5
2018-12-17T17:37:21.012Z,6.5
2018-12-17T17:42:23.260Z,6.5
2018-12-17T17:47:26.553Z,6.4
2018-12-17T17:52:27.859Z,6.4
2018-12-17T17:57:30.187Z,6.4
2018-12-17T18:02:32.430Z,6.4
2018-12-17T18:07:34.682Z,6.4
2018-12-17T18:12:36.994Z,6.3
2018-12-17T18:17:39.334Z,6.3
2018-12-17T18:22:41.523Z,6.3
2018-12-17T18:27:43.912Z,6.3
2018-12-17T18:32:46.226Z,6.2
2018-12-17T18:37:48.523Z,6.2
2018-12-17T18:42:50.714Z,6.1
2018-12-17T18:47:53.105Z,6.1
2018-12-17T18:52:55.454Z,6
2018-12-17T18:57:57.795Z,6
2018-12-17T19:03:00.037Z,5.9
2018-12-17T19:08:03.901Z,5.8
2018-12-17T19:13:04.501Z,5.9
2018-12-17T19:18:06.813Z,5.9
2018-12-17T19:23:09.188Z,5.9
2018-12-17T19:28:11.458Z,5.9
2018-12-17T19:33:13.782Z,5.9
2018-12-17T19:38:16.131Z,5.8
2018-12-17T19:43:18.331Z,5.8
2018-12-17T19:48:20.734Z,5.8
2018-12-17T19:53:22.944Z,5.8
2018-12-17T19:58:25.149Z,5.8
2018-12-17T20:03:27.508Z,5.8
2018-12-17T20:08:29.794Z,5.8
2018-12-17T20:13:32.099Z,5.8
2018-12-17T20:18:34.383Z,5.8
2018-12-17T20:23:36.776Z,5.8
2018-12-17T20:28:38.921Z,5.9
2018-12-17T20:38:59.652Z,5.8
2018-12-17T20:44:01.803Z,5.8
2018-12-17T20:49:04.041Z,5.8
2018-12-17T20:54:06.370Z,5.8
2018-12-17T20:59:08.655Z,5.9
2018-12-17T21:04:10.891Z,5.9
2018-12-17T21:09:13.239Z,5.9
2018-12-17T21:14:15.562Z,6
2018-12-17T21:19:17.749Z,5.9
2018-12-17T21:24:19.999Z,5.9
2018-12-17T21:29:22.377Z,5.8
2018-12-17T21:34:24.760Z,5.9
2018-12-17T21:39:26.966Z,5.9
2018-12-17T21:44:29.315Z,6
2018-12-17T21:49:31.579Z,6
2018-12-17T21:54:33.856Z,6
2018-12-17T21:59:36.118Z,6
2018-12-17T22:04:38.440Z,6
2018-12-17T22:09:40.769Z,6
2018-12-17T22:14:43.054Z,6
2018-12-17T22:19:45.318Z,6
2018-12-17T22:24:47.693Z,6
2018-12-17T22:29:49.855Z,6.1
2018-12-17T22:34:52.191Z,6.1
2018-12-17T22:39:54.546Z,6.1
2018-12-17T22:44:56.813Z,6.1
2018-12-17T22:55:01.438Z,6.1
2018-12-17T23:00:03.634Z,6.1
2018-12-17T23:05:05.959Z,6.1
2018-12-17T23:10:08.378Z,6.1
2018-12-17T23:15:10.629Z,6.2
2018-12-17T23:20:12.818Z,6.2
2018-12-17T23:25:15.098Z,6.1
2018-12-17T23:35:22.455Z,6.2
2018-12-17T23:45:36.320Z,6.2
2018-12-17T23:50:38.687Z,6.2
2018-12-17T23:55:40.969Z,6.2
